sensor_id;sensor_type;location;lat;lon;timestamp;P1;durP1;ratioP1;P2;durP2;ratioP2
16314;SDS011;8266;52.150;4.768;2023-02-24T00:01:37;5.03;;;1.48;;
16314;SDS011;8266;52.150;4.768;2023-02-24T00:04:06;11.05;;;2.00;;
16314;SDS011;8266;52.150;4.768;2023-02-24T00:06:35;5.32;;;1.70;;
16314;SDS011;8266;52.150;4.768;2023-02-24T00:09:04;7.82;;;1.70;;
16314;SDS011;8266;52.150;4.768;2023-02-24T00:11:33;7.43;;;1.92;;
16314;SDS011;8266;52.150;4.768;2023-02-24T00:14:03;8.05;;;1.60;;
16314;SDS011;8266;52.150;4.768;2023-02-24T00:16:31;4.43;;;1.42;;
16314;SDS011;8266;52.150;4.768;2023-02-24T00:19:00;6.47;;;1.58;;
16314;SDS011;8266;52.150;4.768;2023-02-24T00:21:28;6.53;;;2.00;;
16314;SDS011;8266;52.150;4.768;2023-02-24T00:23:55;5.80;;;1.63;;
16314;SDS011;8266;52.150;4.768;2023-02-24T00:26:25;5.75;;;1.65;;
16314;SDS011;8266;52.150;4.768;2023-02-24T00:28:55;7.13;;;1.42;;
16314;SDS011;8266;52.150;4.768;2023-02-24T00:31:24;4.43;;;1.92;;
16314;SDS011;8266;52.150;4.768;2023-02-24T00:33:54;5.22;;;1.40;;
16314;SDS011;8266;52.150;4.768;2023-02-24T00:36:23;5.65;;;1.33;;
16314;SDS011;8266;52.150;4.768;2023-02-24T00:38:52;4.88;;;1.65;;
16314;SDS011;8266;52.150;4.768;2023-02-24T00:41:21;6.18;;;1.90;;
16314;SDS011;8266;52.150;4.768;2023-02-24T00:43:53;6.00;;;1.92;;
16314;SDS011;8266;52.150;4.768;2023-02-24T00:46:22;4.70;;;1.55;;
16314;SDS011;8266;52.150;4.768;2023-02-24T00:48:50;8.02;;;1.60;;
16314;SDS011;8266;52.150;4.768;2023-02-24T00:51:20;7.45;;;2.63;;
16314;SDS011;8266;52.150;4.768;2023-02-24T00:53:51;7.28;;;1.58;;
16314;SDS011;8266;52.150;4.768;2023-02-24T00:56:21;5.30;;;1.75;;
16314;SDS011;8266;52.150;4.768;2023-02-24T00:58:49;6.50;;;1.73;;
16314;SDS011;8266;52.150;4.768;2023-02-24T01:01:18;5.38;;;1.80;;
16314;SDS011;8266;52.150;4.768;2023-02-24T01:03:48;7.13;;;1.65;;
16314;SDS011;8266;52.150;4.768;2023-02-24T01:06:16;4.85;;;1.42;;
16314;SDS011;8266;52.150;4.768;2023-02-24T01:08:44;6.93;;;1.55;;
16314;SDS011;8266;52.150;4.768;2023-02-24T01:11:15;8.00;;;1.80;;
16314;SDS011;8266;52.150;4.768;2023-02-24T01:14:17;4.32;;;1.55;;
16314;SDS011;8266;52.150;4.768;2023-02-24T01:16:46;6.78;;;1.60;;
16314;SDS011;8266;52.150;4.768;2023-02-24T01:19:14;6.50;;;1.77;;
16314;SDS011;8266;52.150;4.768;2023-02-24T01:21:42;6.22;;;1.48;;
16314;SDS011;8266;52.150;4.768;2023-02-24T01:24:10;6.30;;;1.60;;
16314;SDS011;8266;52.150;4.768;2023-02-24T01:26:40;6.30;;;1.80;;
16314;SDS011;8266;52.150;4.768;2023-02-24T01:29:08;3.80;;;1.33;;
16314;SDS011;8266;52.150;4.768;2023-02-24T01:31:35;6.63;;;1.42;;
16314;SDS011;8266;52.150;4.768;2023-02-24T01:34:04;4.38;;;1.13;;
16314;SDS011;8266;52.150;4.768;2023-02-24T01:36:32;4.50;;;1.42;;
16314;SDS011;8266;52.150;4.768;2023-02-24T01:38:59;4.50;;;1.17;;
16314;SDS011;8266;52.150;4.768;2023-02-24T01:41:26;5.20;;;1.27;;
16314;SDS011;8266;52.150;4.768;2023-02-24T01:43:57;6.75;;;1.48;;
16314;SDS011;8266;52.150;4.768;2023-02-24T01:46:28;4.95;;;1.70;;
16314;SDS011;8266;52.150;4.768;2023-02-24T01:48:58;5.80;;;1.67;;
16314;SDS011;8266;52.150;4.768;2023-02-24T01:51:28;7.18;;;1.40;;
16314;SDS011;8266;52.150;4.768;2023-02-24T01:53:59;5.13;;;1.60;;
16314;SDS011;8266;52.150;4.768;2023-02-24T01:56:27;4.57;;;1.40;;
16314;SDS011;8266;52.150;4.768;2023-02-24T01:58:57;10.05;;;1.60;;
16314;SDS011;8266;52.150;4.768;2023-02-24T02:01:26;4.50;;;1.42;;
16314;SDS011;8266;52.150;4.768;2023-02-24T02:03:55;8.93;;;1.48;;
16314;SDS011;8266;52.150;4.768;2023-02-24T02:06:29;5.38;;;1.50;;
16314;SDS011;8266;52.150;4.768;2023-02-24T02:08:57;11.40;;;1.67;;
16314;SDS011;8266;52.150;4.768;2023-02-24T02:11:25;4.38;;;1.58;;
16314;SDS011;8266;52.150;4.768;2023-02-24T02:13:52;7.35;;;2.00;;
16314;SDS011;8266;52.150;4.768;2023-02-24T02:19:21;4.05;;;1.33;;
16314;SDS011;8266;52.150;4.768;2023-02-24T02:22:19;6.20;;;1.52;;
16314;SDS011;8266;52.150;4.768;2023-02-24T02:25:07;4.15;;;1.10;;
16314;SDS011;8266;52.150;4.768;2023-02-24T02:27:47;4.25;;;1.40;;
16314;SDS011;8266;52.150;4.768;2023-02-24T02:30:49;7.38;;;1.90;;
16314;SDS011;8266;52.150;4.768;2023-02-24T02:33:54;4.97;;;1.75;;
16314;SDS011;8266;52.150;4.768;2023-02-24T02:36:45;7.68;;;2.00;;
16314;SDS011;8266;52.150;4.768;2023-02-24T02:39:24;4.03;;;1.33;;
16314;SDS011;8266;52.150;4.768;2023-02-24T02:42:00;6.47;;;1.13;;
16314;SDS011;8266;52.150;4.768;2023-02-24T02:44:39;3.33;;;1.33;;
16314;SDS011;8266;52.150;4.768;2023-02-24T02:47:13;4.60;;;1.45;;
16314;SDS011;8266;52.150;4.768;2023-02-24T02:49:50;5.68;;;1.58;;
16314;SDS011;8266;52.150;4.768;2023-02-24T02:52:22;5.15;;;1.35;;
16314;SDS011;8266;52.150;4.768;2023-02-24T02:54:55;6.95;;;1.27;;
16314;SDS011;8266;52.150;4.768;2023-02-24T02:57:26;4.30;;;1.15;;
16314;SDS011;8266;52.150;4.768;2023-02-24T02:59:57;7.72;;;1.35;;
16314;SDS011;8266;52.150;4.768;2023-02-24T03:02:29;6.30;;;1.45;;
16314;SDS011;8266;52.150;4.768;2023-02-24T03:05:04;5.78;;;1.25;;
16314;SDS011;8266;52.150;4.768;2023-02-24T03:07:35;5.05;;;1.10;;
16314;SDS011;8266;52.150;4.768;2023-02-24T03:10:07;4.43;;;1.50;;
16314;SDS011;8266;52.150;4.768;2023-02-24T03:12:42;5.25;;;1.50;;
16314;SDS011;8266;52.150;4.768;2023-02-24T03:15:12;2.63;;;1.33;;
16314;SDS011;8266;52.150;4.768;2023-02-24T03:17:41;4.72;;;1.20;;
16314;SDS011;8266;52.150;4.768;2023-02-24T03:20:12;5.43;;;1.73;;
16314;SDS011;8266;52.150;4.768;2023-02-24T03:22:45;6.05;;;1.80;;
16314;SDS011;8266;52.150;4.768;2023-02-24T03:25:17;5.32;;;1.23;;
16314;SDS011;8266;52.150;4.768;2023-02-24T03:27:48;5.28;;;1.20;;
16314;SDS011;8266;52.150;4.768;2023-02-24T03:30:21;3.28;;;1.20;;
16314;SDS011;8266;52.150;4.768;2023-02-24T03:32:53;4.80;;;1.13;;
16314;SDS011;8266;52.150;4.768;2023-02-24T03:35:25;5.15;;;1.25;;
16314;SDS011;8266;52.150;4.768;2023-02-24T03:37:54;5.10;;;1.73;;
16314;SDS011;8266;52.150;4.768;2023-02-24T03:40:27;4.60;;;0.93;;
16314;SDS011;8266;52.150;4.768;2023-02-24T03:43:00;4.32;;;1.30;;
16314;SDS011;8266;52.150;4.768;2023-02-24T03:45:32;5.20;;;1.35;;
16314;SDS011;8266;52.150;4.768;2023-02-24T03:48:02;3.03;;;1.27;;
16314;SDS011;8266;52.150;4.768;2023-02-24T03:50:31;4.55;;;1.20;;
16314;SDS011;8266;52.150;4.768;2023-02-24T03:53:02;2.53;;;1.00;;
16314;SDS011;8266;52.150;4.768;2023-02-24T03:55:40;3.17;;;1.13;;
16314;SDS011;8266;52.150;4.768;2023-02-24T03:58:14;5.82;;;1.02;;
16314;SDS011;8266;52.150;4.768;2023-02-24T04:00:50;4.05;;;1.20;;
16314;SDS011;8266;52.150;4.768;2023-02-24T04:03:25;1.92;;;0.98;;
16314;SDS011;8266;52.150;4.768;2023-02-24T04:06:03;5.45;;;1.00;;
16314;SDS011;8266;52.150;4.768;2023-02-24T04:08:36;3.80;;;1.25;;
16314;SDS011;8266;52.150;4.768;2023-02-24T04:11:09;4.70;;;1.80;;
16314;SDS011;8266;52.150;4.768;2023-02-24T04:13:45;3.58;;;0.95;;
16314;SDS011;8266;52.150;4.768;2023-02-24T04:16:17;4.50;;;1.13;;
16314;SDS011;8266;52.150;4.768;2023-02-24T04:18:52;2.42;;;0.88;;
16314;SDS011;8266;52.150;4.768;2023-02-24T04:21:25;5.35;;;1.30;;
16314;SDS011;8266;52.150;4.768;2023-02-24T04:23:54;5.50;;;1.08;;
16314;SDS011;8266;52.150;4.768;2023-02-24T04:26:22;5.03;;;1.10;;
16314;SDS011;8266;52.150;4.768;2023-02-24T04:28:51;4.22;;;1.02;;
16314;SDS011;8266;52.150;4.768;2023-02-24T04:31:20;2.58;;;1.00;;
16314;SDS011;8266;52.150;4.768;2023-02-24T04:33:50;2.42;;;0.82;;
16314;SDS011;8266;52.150;4.768;2023-02-24T04:36:18;6.65;;;1.27;;
16314;SDS011;8266;52.150;4.768;2023-02-24T04:38:48;3.63;;;0.88;;
16314;SDS011;8266;52.150;4.768;2023-02-24T04:41:15;6.70;;;1.27;;
16314;SDS011;8266;52.150;4.768;2023-02-24T04:43:45;3.92;;;0.93;;
16314;SDS011;8266;52.150;4.768;2023-02-24T04:46:14;5.95;;;1.40;;
16314;SDS011;8266;52.150;4.768;2023-02-24T04:48:42;4.82;;;1.10;;
16314;SDS011;8266;52.150;4.768;2023-02-24T04:51:09;3.03;;;1.20;;
16314;SDS011;8266;52.150;4.768;2023-02-24T04:53:37;4.13;;;1.15;;
16314;SDS011;8266;52.150;4.768;2023-02-24T04:56:06;5.70;;;1.70;;
16314;SDS011;8266;52.150;4.768;2023-02-24T04:58:34;5.20;;;1.30;;
16314;SDS011;8266;52.150;4.768;2023-02-24T05:01:05;6.55;;;1.65;;
16314;SDS011;8266;52.150;4.768;2023-02-24T05:03:35;2.90;;;0.98;;
16314;SDS011;8266;52.150;4.768;2023-02-24T05:06:06;4.72;;;0.95;;
16314;SDS011;8266;52.150;4.768;2023-02-24T05:08:38;6.32;;;1.13;;
16314;SDS011;8266;52.150;4.768;2023-02-24T05:11:10;2.50;;;0.98;;
16314;SDS011;8266;52.150;4.768;2023-02-24T05:13:40;3.45;;;0.95;;
16314;SDS011;8266;52.150;4.768;2023-02-24T05:16:10;3.85;;;0.90;;
16314;SDS011;8266;52.150;4.768;2023-02-24T05:18:40;6.53;;;1.58;;
16314;SDS011;8266;52.150;4.768;2023-02-24T05:21:09;3.30;;;0.90;;
16314;SDS011;8266;52.150;4.768;2023-02-24T05:24:09;4.20;;;1.10;;
16314;SDS011;8266;52.150;4.768;2023-02-24T05:26:38;3.35;;;1.27;;
16314;SDS011;8266;52.150;4.768;2023-02-24T05:29:06;1.38;;;0.88;;
16314;SDS011;8266;52.150;4.768;2023-02-24T05:31:33;5.47;;;1.38;;
16314;SDS011;8266;52.150;4.768;2023-02-24T05:34:02;3.72;;;1.20;;
16314;SDS011;8266;52.150;4.768;2023-02-24T05:36:30;5.72;;;1.50;;
16314;SDS011;8266;52.150;4.768;2023-02-24T05:39:00;3.50;;;1.05;;
16314;SDS011;8266;52.150;4.768;2023-02-24T05:41:30;2.00;;;0.80;;
16314;SDS011;8266;52.150;4.768;2023-02-24T05:44:01;6.55;;;1.27;;
16314;SDS011;8266;52.150;4.768;2023-02-24T05:46:33;4.05;;;1.27;;
16314;SDS011;8266;52.150;4.768;2023-02-24T05:49:02;3.22;;;1.15;;
16314;SDS011;8266;52.150;4.768;2023-02-24T05:51:33;4.30;;;1.25;;
16314;SDS011;8266;52.150;4.768;2023-02-24T05:54:03;2.08;;;1.60;;
16314;SDS011;8266;52.150;4.768;2023-02-24T05:56:31;3.30;;;1.40;;
16314;SDS011;8266;52.150;4.768;2023-02-24T05:59:05;5.60;;;1.63;;
16314;SDS011;8266;52.150;4.768;2023-02-24T06:01:35;4.75;;;1.27;;
16314;SDS011;8266;52.150;4.768;2023-02-24T06:04:11;5.03;;;1.50;;
16314;SDS011;8266;52.150;4.768;2023-02-24T06:06:45;6.22;;;2.10;;
16314;SDS011;8266;52.150;4.768;2023-02-24T06:09:27;6.47;;;1.77;;
16314;SDS011;8266;52.150;4.768;2023-02-24T06:11:54;6.80;;;1.90;;
16314;SDS011;8266;52.150;4.768;2023-02-24T06:14:24;8.52;;;1.85;;
16314;SDS011;8266;52.150;4.768;2023-02-24T06:16:52;5.88;;;1.90;;
16314;SDS011;8266;52.150;4.768;2023-02-24T06:19:19;4.70;;;1.67;;
16314;SDS011;8266;52.150;4.768;2023-02-24T06:21:48;7.03;;;1.92;;
16314;SDS011;8266;52.150;4.768;2023-02-24T06:24:16;5.55;;;2.03;;
16314;SDS011;8266;52.150;4.768;2023-02-24T06:26:44;3.75;;;1.70;;
16314;SDS011;8266;52.150;4.768;2023-02-24T06:29:13;8.60;;;2.03;;
16314;SDS011;8266;52.150;4.768;2023-02-24T06:31:43;4.47;;;2.03;;
16314;SDS011;8266;52.150;4.768;2023-02-24T06:34:13;3.80;;;1.90;;
16314;SDS011;8266;52.150;4.768;2023-02-24T06:39:22;6.07;;;2.35;;
16314;SDS011;8266;52.150;4.768;2023-02-24T06:41:49;8.63;;;2.75;;
16314;SDS011;8266;52.150;4.768;2023-02-24T06:44:17;3.70;;;1.67;;
16314;SDS011;8266;52.150;4.768;2023-02-24T06:46:46;4.05;;;2.05;;
16314;SDS011;8266;52.150;4.768;2023-02-24T06:49:15;6.55;;;2.13;;
16314;SDS011;8266;52.150;4.768;2023-02-24T06:51:42;7.07;;;2.10;;
16314;SDS011;8266;52.150;4.768;2023-02-24T06:54:09;7.78;;;1.70;;
16314;SDS011;8266;52.150;4.768;2023-02-24T06:56:36;6.78;;;1.95;;
16314;SDS011;8266;52.150;4.768;2023-02-24T06:59:06;7.57;;;1.83;;
16314;SDS011;8266;52.150;4.768;2023-02-24T07:01:36;6.78;;;2.17;;
16314;SDS011;8266;52.150;4.768;2023-02-24T07:04:11;5.13;;;1.30;;
16314;SDS011;8266;52.150;4.768;2023-02-24T07:06:46;7.53;;;2.40;;
16314;SDS011;8266;52.150;4.768;2023-02-24T07:09:17;6.75;;;2.20;;
16314;SDS011;8266;52.150;4.768;2023-02-24T07:11:53;9.40;;;2.03;;
16314;SDS011;8266;52.150;4.768;2023-02-24T07:14:21;5.97;;;2.08;;
16314;SDS011;8266;52.150;4.768;2023-02-24T07:16:49;5.90;;;2.80;;
16314;SDS011;8266;52.150;4.768;2023-02-24T07:19:20;7.90;;;1.85;;
16314;SDS011;8266;52.150;4.768;2023-02-24T07:21:48;7.72;;;1.92;;
16314;SDS011;8266;52.150;4.768;2023-02-24T07:24:18;12.80;;;2.58;;
16314;SDS011;8266;52.150;4.768;2023-02-24T07:26:56;6.00;;;2.47;;
16314;SDS011;8266;52.150;4.768;2023-02-24T07:29:24;7.50;;;2.33;;
16314;SDS011;8266;52.150;4.768;2023-02-24T07:31:52;6.32;;;2.20;;
16314;SDS011;8266;52.150;4.768;2023-02-24T07:34:23;5.88;;;1.98;;
16314;SDS011;8266;52.150;4.768;2023-02-24T07:36:51;7.35;;;1.70;;
16314;SDS011;8266;52.150;4.768;2023-02-24T07:39:20;6.32;;;2.08;;
16314;SDS011;8266;52.150;4.768;2023-02-24T07:41:48;6.40;;;1.80;;
16314;SDS011;8266;52.150;4.768;2023-02-24T07:44:17;5.53;;;1.88;;
16314;SDS011;8266;52.150;4.768;2023-02-24T07:46:45;6.63;;;2.30;;
16314;SDS011;8266;52.150;4.768;2023-02-24T07:49:14;4.40;;;1.48;;
16314;SDS011;8266;52.150;4.768;2023-02-24T07:51:45;8.07;;;2.33;;
16314;SDS011;8266;52.150;4.768;2023-02-24T07:54:16;7.57;;;1.92;;
16314;SDS011;8266;52.150;4.768;2023-02-24T07:56:45;9.20;;;2.63;;
16314;SDS011;8266;52.150;4.768;2023-02-24T07:59:20;11.70;;;2.72;;
16314;SDS011;8266;52.150;4.768;2023-02-24T08:01:48;6.53;;;2.08;;
16314;SDS011;8266;52.150;4.768;2023-02-24T08:04:16;14.75;;;3.35;;
16314;SDS011;8266;52.150;4.768;2023-02-24T08:06:48;6.40;;;2.22;;
16314;SDS011;8266;52.150;4.768;2023-02-24T08:09:21;8.88;;;2.88;;
16314;SDS011;8266;52.150;4.768;2023-02-24T08:12:03;11.25;;;2.40;;
16314;SDS011;8266;52.150;4.768;2023-02-24T08:14:32;7.38;;;2.30;;
16314;SDS011;8266;52.150;4.768;2023-02-24T08:17:08;6.55;;;1.88;;
16314;SDS011;8266;52.150;4.768;2023-02-24T08:19:40;8.48;;;1.98;;
16314;SDS011;8266;52.150;4.768;2023-02-24T08:22:10;7.03;;;2.33;;
16314;SDS011;8266;52.150;4.768;2023-02-24T08:24:49;5.85;;;2.08;;
16314;SDS011;8266;52.150;4.768;2023-02-24T08:27:18;6.30;;;2.08;;
16314;SDS011;8266;52.150;4.768;2023-02-24T08:29:47;9.02;;;2.22;;
16314;SDS011;8266;52.150;4.768;2023-02-24T08:32:26;10.65;;;2.58;;
16314;SDS011;8266;52.150;4.768;2023-02-24T08:34:58;6.75;;;1.92;;
16314;SDS011;8266;52.150;4.768;2023-02-24T08:37:29;6.30;;;2.17;;
16314;SDS011;8266;52.150;4.768;2023-02-24T08:40:04;11.50;;;2.53;;
16314;SDS011;8266;52.150;4.768;2023-02-24T08:42:53;9.07;;;2.08;;
16314;SDS011;8266;52.150;4.768;2023-02-24T08:45:22;8.48;;;1.98;;
16314;SDS011;8266;52.150;4.768;2023-02-24T08:47:50;10.73;;;1.98;;
16314;SDS011;8266;52.150;4.768;2023-02-24T08:50:24;9.70;;;2.20;;
16314;SDS011;8266;52.150;4.768;2023-02-24T08:52:56;8.65;;;2.08;;
16314;SDS011;8266;52.150;4.768;2023-02-24T08:55:25;9.80;;;2.00;;
16314;SDS011;8266;52.150;4.768;2023-02-24T08:57:57;5.65;;;2.03;;
16314;SDS011;8266;52.150;4.768;2023-02-24T09:00:25;10.50;;;2.30;;
16314;SDS011;8266;52.150;4.768;2023-02-24T09:03:12;10.75;;;2.97;;
16314;SDS011;8266;52.150;4.768;2023-02-24T09:05:54;6.32;;;2.22;;
16314;SDS011;8266;52.150;4.768;2023-02-24T09:08:24;8.35;;;2.10;;
16314;SDS011;8266;52.150;4.768;2023-02-24T09:10:57;9.38;;;2.50;;
16314;SDS011;8266;52.150;4.768;2023-02-24T09:13:32;14.38;;;2.40;;
16314;SDS011;8266;52.150;4.768;2023-02-24T09:16:00;7.10;;;2.20;;
16314;SDS011;8266;52.150;4.768;2023-02-24T09:18:28;9.75;;;2.40;;
16314;SDS011;8266;52.150;4.768;2023-02-24T09:21:09;10.18;;;2.15;;
16314;SDS011;8266;52.150;4.768;2023-02-24T09:23:57;9.63;;;2.30;;
16314;SDS011;8266;52.150;4.768;2023-02-24T09:26:27;8.15;;;2.08;;
16314;SDS011;8266;52.150;4.768;2023-02-24T09:28:57;9.38;;;2.10;;
16314;SDS011;8266;52.150;4.768;2023-02-24T09:31:24;10.95;;;2.97;;
16314;SDS011;8266;52.150;4.768;2023-02-24T09:34:05;11.05;;;3.20;;
16314;SDS011;8266;52.150;4.768;2023-02-24T09:36:34;9.18;;;2.13;;
16314;SDS011;8266;52.150;4.768;2023-02-24T09:39:10;10.65;;;2.35;;
16314;SDS011;8266;52.150;4.768;2023-02-24T09:41:40;13.88;;;2.85;;
16314;SDS011;8266;52.150;4.768;2023-02-24T09:44:29;6.05;;;1.90;;
16314;SDS011;8266;52.150;4.768;2023-02-24T09:47:01;9.85;;;2.50;;
16314;SDS011;8266;52.150;4.768;2023-02-24T09:49:38;11.25;;;2.70;;
16314;SDS011;8266;52.150;4.768;2023-02-24T09:52:12;6.65;;;2.33;;
16314;SDS011;8266;52.150;4.768;2023-02-24T09:54:44;5.53;;;2.63;;
16314;SDS011;8266;52.150;4.768;2023-02-24T09:57:26;3.45;;;2.05;;
16314;SDS011;8266;52.150;4.768;2023-02-24T10:00:03;6.75;;;2.50;;
16314;SDS011;8266;52.150;4.768;2023-02-24T10:02:59;4.57;;;2.60;;
16314;SDS011;8266;52.150;4.768;2023-02-24T10:05:44;6.60;;;2.83;;
16314;SDS011;8266;52.150;4.768;2023-02-24T10:08:24;4.57;;;2.78;;
16314;SDS011;8266;52.150;4.768;2023-02-24T10:10:58;7.60;;;3.58;;
16314;SDS011;8266;52.150;4.768;2023-02-24T10:13:33;5.28;;;3.40;;
16314;SDS011;8266;52.150;4.768;2023-02-24T10:16:04;8.43;;;3.50;;
16314;SDS011;8266;52.150;4.768;2023-02-24T10:18:38;8.43;;;4.30;;
16314;SDS011;8266;52.150;4.768;2023-02-24T10:21:17;7.78;;;4.13;;
16314;SDS011;8266;52.150;4.768;2023-02-24T10:23:58;5.72;;;4.30;;
16314;SDS011;8266;52.150;4.768;2023-02-24T10:26:35;7.45;;;4.82;;
16314;SDS011;8266;52.150;4.768;2023-02-24T10:29:13;7.60;;;5.68;;
16314;SDS011;8266;52.150;4.768;2023-02-24T10:31:47;7.20;;;5.40;;
16314;SDS011;8266;52.150;4.768;2023-02-24T10:34:21;7.35;;;5.57;;
16314;SDS011;8266;52.150;4.768;2023-02-24T10:36:56;7.03;;;5.43;;
16314;SDS011;8266;52.150;4.768;2023-02-24T10:39:25;5.72;;;4.85;;
16314;SDS011;8266;52.150;4.768;2023-02-24T10:41:59;7.28;;;5.60;;
16314;SDS011;8266;52.150;4.768;2023-02-24T10:44:41;6.97;;;6.28;;
16314;SDS011;8266;52.150;4.768;2023-02-24T10:47:17;10.68;;;6.28;;
16314;SDS011;8266;52.150;4.768;2023-02-24T10:49:45;6.53;;;5.65;;
16314;SDS011;8266;52.150;4.768;2023-02-24T10:52:23;7.80;;;5.55;;
16314;SDS011;8266;52.150;4.768;2023-02-24T10:55:36;6.78;;;5.07;;
16314;SDS011;8266;52.150;4.768;2023-02-24T10:58:21;5.28;;;4.78;;
16314;SDS011;8266;52.150;4.768;2023-02-24T11:01:05;5.20;;;4.70;;
16314;SDS011;8266;52.150;4.768;2023-02-24T11:03:46;5.43;;;4.88;;
16314;SDS011;8266;52.150;4.768;2023-02-24T11:06:25;7.47;;;5.50;;
16314;SDS011;8266;52.150;4.768;2023-02-24T11:09:20;6.03;;;4.85;;
16314;SDS011;8266;52.150;4.768;2023-02-24T11:12:01;5.95;;;4.80;;
16314;SDS011;8266;52.150;4.768;2023-02-24T11:14:50;7.07;;;5.68;;
16314;SDS011;8266;52.150;4.768;2023-02-24T11:17:37;8.68;;;5.68;;
16314;SDS011;8266;52.150;4.768;2023-02-24T11:20:17;10.18;;;6.40;;
16314;SDS011;8266;52.150;4.768;2023-02-24T11:22:52;15.82;;;6.80;;
16314;SDS011;8266;52.150;4.768;2023-02-24T11:25:22;8.95;;;6.88;;
16314;SDS011;8266;52.150;4.768;2023-02-24T11:27:51;10.85;;;6.60;;
16314;SDS011;8266;52.150;4.768;2023-02-24T11:30:24;17.33;;;7.53;;
16314;SDS011;8266;52.150;4.768;2023-02-24T11:33:10;12.43;;;6.72;;
16314;SDS011;8266;52.150;4.768;2023-02-24T11:35:45;14.68;;;6.50;;
16314;SDS011;8266;52.150;4.768;2023-02-24T11:38:24;10.63;;;5.68;;
16314;SDS011;8266;52.150;4.768;2023-02-24T11:41:02;12.65;;;5.97;;
16314;SDS011;8266;52.150;4.768;2023-02-24T11:43:36;11.55;;;5.45;;
16314;SDS011;8266;52.150;4.768;2023-02-24T11:46:10;14.40;;;5.50;;
16314;SDS011;8266;52.150;4.768;2023-02-24T11:48:41;12.88;;;5.28;;
16314;SDS011;8266;52.150;4.768;2023-02-24T11:51:14;13.68;;;4.60;;
16314;SDS011;8266;52.150;4.768;2023-02-24T11:53:44;16.48;;;4.22;;
16314;SDS011;8266;52.150;4.768;2023-02-24T11:56:17;12.70;;;4.07;;
16314;SDS011;8266;52.150;4.768;2023-02-24T11:58:48;11.90;;;3.90;;
16314;SDS011;8266;52.150;4.768;2023-02-24T12:01:24;15.05;;;3.72;;
16314;SDS011;8266;52.150;4.768;2023-02-24T12:03:55;14.50;;;3.55;;
16314;SDS011;8266;52.150;4.768;2023-02-24T12:06:34;15.98;;;3.92;;
16314;SDS011;8266;52.150;4.768;2023-02-24T12:09:07;16.85;;;3.60;;
16314;SDS011;8266;52.150;4.768;2023-02-24T12:11:41;19.23;;;3.92;;
16314;SDS011;8266;52.150;4.768;2023-02-24T12:14:18;14.98;;;3.45;;
16314;SDS011;8266;52.150;4.768;2023-02-24T12:16:53;17.75;;;4.13;;
16314;SDS011;8266;52.150;4.768;2023-02-24T12:19:26;17.27;;;3.17;;
16314;SDS011;8266;52.150;4.768;2023-02-24T12:22:00;14.48;;;3.92;;
16314;SDS011;8266;52.150;4.768;2023-02-24T12:24:32;13.55;;;3.60;;
16314;SDS011;8266;52.150;4.768;2023-02-24T12:27:03;12.80;;;3.35;;
16314;SDS011;8266;52.150;4.768;2023-02-24T12:29:43;14.70;;;4.03;;
16314;SDS011;8266;52.150;4.768;2023-02-24T12:32:21;20.25;;;3.60;;
16314;SDS011;8266;52.150;4.768;2023-02-24T12:35:00;15.32;;;3.60;;
16314;SDS011;8266;52.150;4.768;2023-02-24T12:37:40;16.23;;;3.40;;
16314;SDS011;8266;52.150;4.768;2023-02-24T12:40:21;19.95;;;3.10;;
16314;SDS011;8266;52.150;4.768;2023-02-24T12:42:57;18.23;;;3.85;;
16314;SDS011;8266;52.150;4.768;2023-02-24T12:45:33;16.30;;;3.78;;
16314;SDS011;8266;52.150;4.768;2023-02-24T12:48:10;15.70;;;3.03;;
16314;SDS011;8266;52.150;4.768;2023-02-24T12:50:50;13.90;;;2.67;;
16314;SDS011;8266;52.150;4.768;2023-02-24T12:53:25;13.82;;;2.90;;
16314;SDS011;8266;52.150;4.768;2023-02-24T12:56:03;13.43;;;3.45;;
16314;SDS011;8266;52.150;4.768;2023-02-24T12:58:38;12.07;;;3.50;;
16314;SDS011;8266;52.150;4.768;2023-02-24T13:01:10;14.45;;;2.58;;
16314;SDS011;8266;52.150;4.768;2023-02-24T13:03:51;14.20;;;2.33;;
16314;SDS011;8266;52.150;4.768;2023-02-24T13:06:36;16.85;;;3.08;;
16314;SDS011;8266;52.150;4.768;2023-02-24T13:09:13;17.52;;;3.35;;
16314;SDS011;8266;52.150;4.768;2023-02-24T13:11:48;18.75;;;4.03;;
16314;SDS011;8266;52.150;4.768;2023-02-24T13:14:20;16.17;;;3.58;;
16314;SDS011;8266;52.150;4.768;2023-02-24T13:17:01;18.30;;;5.00;;
16314;SDS011;8266;52.150;4.768;2023-02-24T13:19:43;18.85;;;4.10;;
16314;SDS011;8266;52.150;4.768;2023-02-24T13:22:18;16.55;;;3.67;;
16314;SDS011;8266;52.150;4.768;2023-02-24T13:24:58;18.88;;;4.63;;
16314;SDS011;8266;52.150;4.768;2023-02-24T13:27:42;21.73;;;3.65;;
16314;SDS011;8266;52.150;4.768;2023-02-24T13:30:23;12.82;;;3.20;;
16314;SDS011;8266;52.150;4.768;2023-02-24T13:33:00;8.85;;;2.65;;
16314;SDS011;8266;52.150;4.768;2023-02-24T13:35:33;10.45;;;2.33;;
16314;SDS011;8266;52.150;4.768;2023-02-24T13:38:08;13.10;;;2.65;;
16314;SDS011;8266;52.150;4.768;2023-02-24T13:40:48;12.13;;;2.78;;
16314;SDS011;8266;52.150;4.768;2023-02-24T13:43:22;11.40;;;2.75;;
16314;SDS011;8266;52.150;4.768;2023-02-24T13:45:55;12.43;;;2.28;;
16314;SDS011;8266;52.150;4.768;2023-02-24T13:48:28;7.00;;;1.33;;
16314;SDS011;8266;52.150;4.768;2023-02-24T13:51:32;5.93;;;1.65;;
16314;SDS011;8266;52.150;4.768;2023-02-24T13:54:16;14.60;;;2.88;;
16314;SDS011;8266;52.150;4.768;2023-02-24T13:57:02;10.40;;;2.50;;
16314;SDS011;8266;52.150;4.768;2023-02-24T13:59:39;9.13;;;2.03;;
16314;SDS011;8266;52.150;4.768;2023-02-24T14:02:19;14.23;;;3.03;;
16314;SDS011;8266;52.150;4.768;2023-02-24T14:04:50;10.18;;;2.63;;
16314;SDS011;8266;52.150;4.768;2023-02-24T14:07:22;12.50;;;2.70;;
16314;SDS011;8266;52.150;4.768;2023-02-24T14:09:51;8.48;;;2.38;;
16314;SDS011;8266;52.150;4.768;2023-02-24T14:12:22;9.35;;;2.40;;
16314;SDS011;8266;52.150;4.768;2023-02-24T14:14:51;14.70;;;3.88;;
16314;SDS011;8266;52.150;4.768;2023-02-24T14:17:20;8.00;;;2.05;;
16314;SDS011;8266;52.150;4.768;2023-02-24T14:19:52;9.88;;;3.03;;
16314;SDS011;8266;52.150;4.768;2023-02-24T14:22:22;9.80;;;2.40;;
16314;SDS011;8266;52.150;4.768;2023-02-24T14:24:49;11.32;;;2.58;;
16314;SDS011;8266;52.150;4.768;2023-02-24T14:27:26;11.90;;;2.95;;
16314;SDS011;8266;52.150;4.768;2023-02-24T14:29:54;15.90;;;2.15;;
16314;SDS011;8266;52.150;4.768;2023-02-24T14:32:21;9.13;;;2.50;;
16314;SDS011;8266;52.150;4.768;2023-02-24T14:34:51;13.75;;;2.47;;
16314;SDS011;8266;52.150;4.768;2023-02-24T14:37:20;16.75;;;2.33;;
16314;SDS011;8266;52.150;4.768;2023-02-24T14:39:50;8.77;;;1.80;;
16314;SDS011;8266;52.150;4.768;2023-02-24T14:42:19;13.05;;;2.03;;
16314;SDS011;8266;52.150;4.768;2023-02-24T14:44:47;7.97;;;1.90;;
16314;SDS011;8266;52.150;4.768;2023-02-24T14:47:16;5.72;;;1.98;;
16314;SDS011;8266;52.150;4.768;2023-02-24T14:49:52;7.43;;;1.15;;
16314;SDS011;8266;52.150;4.768;2023-02-24T14:52:24;7.18;;;1.52;;
16314;SDS011;8266;52.150;4.768;2023-02-24T14:54:58;9.70;;;1.48;;
16314;SDS011;8266;52.150;4.768;2023-02-24T14:57:29;5.97;;;1.60;;
16314;SDS011;8266;52.150;4.768;2023-02-24T15:00:00;7.15;;;1.20;;
16314;SDS011;8266;52.150;4.768;2023-02-24T15:02:36;6.07;;;0.70;;
16314;SDS011;8266;52.150;4.768;2023-02-24T15:05:07;3.42;;;0.88;;
16314;SDS011;8266;52.150;4.768;2023-02-24T15:07:38;4.18;;;0.90;;
16314;SDS011;8266;52.150;4.768;2023-02-24T15:10:15;4.55;;;1.10;;
16314;SDS011;8266;52.150;4.768;2023-02-24T15:12:46;7.57;;;1.58;;
16314;SDS011;8266;52.150;4.768;2023-02-24T15:15:18;3.97;;;0.80;;
16314;SDS011;8266;52.150;4.768;2023-02-24T15:17:47;3.92;;;0.90;;
16314;SDS011;8266;52.150;4.768;2023-02-24T15:20:26;7.53;;;1.40;;
16314;SDS011;8266;52.150;4.768;2023-02-24T15:22:57;3.60;;;0.82;;
16314;SDS011;8266;52.150;4.768;2023-02-24T15:25:26;6.10;;;1.13;;
16314;SDS011;8266;52.150;4.768;2023-02-24T15:27:55;5.25;;;1.48;;
16314;SDS011;8266;52.150;4.768;2023-02-24T15:30:25;6.72;;;1.27;;
16314;SDS011;8266;52.150;4.768;2023-02-24T15:33:01;7.25;;;1.10;;
16314;SDS011;8266;52.150;4.768;2023-02-24T15:35:31;7.78;;;1.70;;
16314;SDS011;8266;52.150;4.768;2023-02-24T15:38:01;9.25;;;1.33;;
16314;SDS011;8266;52.150;4.768;2023-02-24T15:40:29;7.50;;;1.33;;